YSP weather

Marathon Airport
Marathon, Ontario, Canada

Public forecast

Using degrees Celsius for public forecast. Weather courtesy of forecast.io.

METAR (pilot weather report)

Retrieved 2019/05/22 16:00 UTC (46 minutes ago):

CYSP 221600Z 17005KT 130V190 3SM -RA BR BKN045 OVC052 09/08 A3009 RMK FG2SC4SC2 SLP204

TAF (pilot weather forecast)

Retrieved 2019/05/22 14:00 UTC (3 hours ago):

TAF CYSP 221345Z 2214/2221 12010KT P6SM BKN120 FM221500 12012KT P6SM -RA BKN040 OVC080 TEMPO 2215/2221 5SM -SHRA BR BKN020 OVC040 RMK NXT FCST WILL BE ISSUED AT 231345Z